Have a Safe July 4th! 

Flight Track Log - Related Links

Times and Time Zones

All times are in EDT time to prevent confusion due to time zone crossing. See the N830QS flight status page for this flight to view local times or setup timezone preferences in your user account.

Time Position Orientation Groundspeed Altitude Reporting Facility
EDT Latitude Longitude Course Direction KTS MPH feet Rate Location/Type
Mon 01:13:08 PM 36.1522 -79.8803 58° Northeast 205 236 4,600  Level Washington Center
Mon 01:15:08 PM 36.2244 -79.7297 59° Northeast 265 305 11,200 3,381 Climbing Washington Center
Mon 01:16:09 PM 36.2694 -79.6342 60° Northeast 283 326 14,800 3,277 Climbing Washington Center
Mon 01:17:07 PM 36.3075 -79.5536 60° Northeast 297 342 17,700 2,824 Climbing Washington Center
Mon 01:18:00 PM 36.4580 -79.5294 58° Northeast  Level Estimated
Mon 01:18:08 PM 36.3653 -79.4483 56° Northeast 309 356 20,400  Level Washington Center
Mon 01:19:07 PM 36.4283 -79.3661 46° Northeast 323 372 22,500 1,900 Climbing Washington Center
Mon 01:20:08 PM 36.4936 -79.2764 48° Northeast 333 383 24,200 1,240 Climbing Washington Center
Mon 01:21:08 PM 36.5547 -79.1939 47° Northeast 346 398 25,000 397 Climbing Washington Center
Mon 01:22:09 PM 36.6394 -79.0814 47° Northeast 375 432 25,000 545 Level Washington Center
Mon 01:23:09 PM 36.7006 -78.9881 51° Northeast 388 447 26,100 1,500 Climbing Washington Center
Mon 01:24:09 PM 36.7808 -78.8775 48° Northeast 393 452 28,000 1,627 Climbing Washington Center
Mon 01:25:07 PM 36.8544 -78.7769 48° Northeast 393 452 29,300 1,729 Climbing Washington Center
Mon 01:26:07 PM 36.9281 -78.6758 48° Northeast 393 452 31,400 1,835 Climbing Washington Center
Mon 01:27:08 PM 36.9994 -78.5775 48° Northeast 388 447 33,000 793 Climbing Washington Center
Mon 01:28:08 PM 37.0686 -78.4786 49° Northeast 393 452 33,000  Level Washington Center
Mon 01:29:09 PM 37.1525 -78.3669 47° Northeast 409 471 33,000  Level Washington Center
Mon 01:30:09 PM 37.2444 -78.2686 40° Northeast 420 483 33,000  Level Washington Center
Mon 01:31:07 PM 37.3467 -78.1678 38° Northeast 429 494 33,000  Level Washington Center
Mon 01:32:07 PM 37.4342 -78.0792 39° Northeast 417 480 33,000  Level Washington Center
Mon 01:33:08 PM 37.5214 -77.9903 39° Northeast 412 474 33,000  Level Washington Center
Mon 01:34:08 PM 37.6108 -77.8989 39° Northeast 412 474 33,000  Level Washington Center
Mon 01:35:09 PM 37.6981 -77.8069 40° Northeast 412 474 33,000  Level Washington Center
Mon 01:36:07 PM 37.7894 -77.7125 39° Northeast 412 474 33,000  Level Washington Center
Mon 01:37:08 PM 37.8767 -77.6200 40° Northeast 412 474 33,000  Level Washington Center
Mon 01:38:08 PM 37.9678 -77.5278 39° Northeast 412 474 33,000  Level Washington Center
Mon 01:39:09 PM 38.0547 -77.4350 40° Northeast 412 474 33,000  Level Washington Center
Mon 01:40:09 PM 38.1417 -77.3422 40° Northeast 412 474 33,000  Level Washington Center
Mon 01:41:07 PM 38.2328 -77.2464 40° Northeast 412 474 33,000  Level Washington Center
Mon 01:42:07 PM 38.3236 -77.1506 40° Northeast 417 480 33,000  Level Washington Center
Mon 01:43:07 PM 38.4144 -77.0544 40° Northeast 417 480 33,000  Level Washington Center
Mon 01:44:08 PM 38.5053 -76.9581 40° Northeast 417 480 33,000  Level Washington Center
Mon 01:45:09 PM 38.5961 -76.8614 40° Northeast 417 480 33,000  Level Washington Center
Mon 01:46:09 PM 38.6844 -76.7672 40° Northeast 417 480 33,000  Level Washington Center
Mon 01:47:07 PM 38.7731 -76.6647 42° Northeast 417 480 33,000  Level Washington Center
Mon 01:48:07 PM 38.8594 -76.5647 42° Northeast 417 480 33,000  Level Washington Center
Mon 01:49:08 PM 38.9478 -76.4644 41° Northeast 417 480 33,000 -49 Level Washington Center
Mon 01:50:09 PM 39.0339 -76.3667 41° Northeast 417 480 32,900 -1,140 Descending Washington Center
Mon 01:51:09 PM 39.1200 -76.2631 43° Northeast 417 480 30,700 -2,186 Descending Washington Center
Mon 01:52:07 PM 39.2017 -76.1675 42° Northeast 411 473 28,600 -1,866 Descending Washington Center
Mon 01:53:08 PM 39.2792 -76.0850 39° Northeast 406 467 27,000 -787 Descending Washington Center
Mon 01:54:09 PM 39.3567 -75.9914 43° Northeast 389 448 27,000  Level Washington Center
Mon 01:55:09 PM 39.4422 -75.8897 43° Northeast 394 453 27,000  Level Washington Center
Mon 01:56:07 PM 39.5258 -75.7933 42° Northeast 400 460 27,000 -203 Level Washington Center
Mon 01:57:07 PM 39.6094 -75.6939 42° Northeast 400 460 26,600 -992 Descending Washington Center
Mon 01:58:08 PM 39.6906 -75.5942 43° Northeast 395 455 25,000 -1,525 Descending Washington Center
Mon 01:59:09 PM 39.7739 -75.4969 42° Northeast 395 455 23,500 -1,513 Descending Washington Center
Mon 02:00:07 PM 39.8614 -75.3889 43° Northeast 395 455 22,000 -1,714 Descending Washington Center
Mon 02:01:08 PM 39.9403 -75.2939 43° Northeast 395 455 20,100 -2,727 Descending Washington Center
Mon 02:02:08 PM 40.0172 -75.2042 42° Northeast 389 448 16,500 -3,421 Descending Washington Center
Mon 02:03:09 PM 40.0833 -75.1197 44° Northeast 363 418 13,200 -2,926 Descending Washington Center
Mon 02:04:09 PM 40.1414 -75.0486 43° Northeast 325 374 10,600 -1,648 Descending Washington Center
Mon 02:05:31 PM 40.2167 -74.9500 45° Northeast 274 315 9,300 -1,014 Descending New York TRACON
Mon 02:06:31 PM 40.2667 -74.8833 45° Northeast 286 329 8,200 -700 Descending New York TRACON
Mon 02:07:31 PM 40.3333 -74.8167 37° Northeast 275 316 7,900 -900 Descending New York TRACON
Mon 02:08:31 PM 40.4000 -74.7667 30° Northeast 278 320 6,400 -1,450 Descending New York TRACON
Mon 02:09:31 PM 40.4500 -74.7000 45° Northeast 266 306 5,000 -1,300 Descending New York TRACON
Mon 02:10:31 PM 40.5167 -74.6500 30° Northeast 264 304 3,800 -1,000 Descending New York TRACON
Mon 02:11:31 PM 40.5667 -74.5833 45° Northeast 249 287 3,000 -400 Descending New York TRACON
Mon 02:12:31 PM 40.6333 -74.5667 11° North 252 290 3,000  Level New York TRACON
Mon 02:13:31 PM 40.6833 -74.5333 27° Northeast 198 228 3,000  Level New York TRACON
Mon 02:14:31 PM 40.7333 -74.5000 27° Northeast 206 237 3,000 -450 Level New York TRACON
Mon 02:15:31 PM 40.7167 -74.4333 108° East 201 231 2,100 -500 Descending New York TRACON
Mon 02:16:31 PM 40.7167 -74.3667 90° East 187 215 2,000 -100 Descending New York TRACON
Mon 02:17:31 PM 40.7167 -74.3000 90° East 163 188 1,900 -500 Descending New York TRACON
Mon 02:18:31 PM 40.7000 -74.2500 114° Southeast 155 178 1,000 -800 Descending New York TRACON
Mon 02:19:31 PM 40.7000 -74.2000 90° East 117 135 300 -700 Descending New York TRACON

Login

Don't have an account? Register now (free) for customized features, flight alerts, and more!